Time;durP1;ratioP1;P1;durP2;ratioP2;P2;SDS_P1;SDS_P2;PMS_P1;PMS_P2;Temp;Humidity;BMP_temperature;BMP_pressure;BME280_temperature;BME280_humidity;BME280_pressure;Samples;Min_cycle;Max_cycle;Signal;HPM_P1;HPM_P2
2022/05/18 00:01:53;;;;;;;5.18;0.88;;;12.60;51.70;;;;;;4117647;28;20090;-81
2022/05/18 00:03:54;;;;;;;1.67;0.70;;;12.70;51.70;;;;;;4140948;28;20034;-82
2022/05/18 00:05:54;;;;;;;3.30;0.60;;;12.80;51.80;;;;;;4140318;28;20079;-82
2022/05/18 00:07:55;;;;;;;3.65;0.70;;;12.70;51.50;;;;;;4126138;28;20395;-81
2022/05/18 00:09:56;;;;;;;5.10;0.80;;;12.70;51.20;;;;;;4123451;28;20026;-82
2022/05/18 00:11:57;;;;;;;1.25;0.52;;;12.70;51.00;;;;;;4142940;28;20017;-82
2022/05/18 00:13:58;;;;;;;2.60;0.70;;;12.70;51.00;;;;;;4141432;28;20052;-82
2022/05/18 00:15:58;;;;;;;7.68;1.13;;;12.80;50.90;;;;;;4140340;28;20022;-82
2022/05/18 00:17:59;;;;;;;2.95;0.60;;;12.70;50.90;;;;;;4142824;28;20057;-84
2022/05/18 00:20:00;;;;;;;4.07;0.82;;;12.80;50.80;;;;;;4141608;28;20747;-82
2022/05/18 00:22:01;;;;;;;2.65;0.70;;;12.70;50.50;;;;;;4143966;28;20053;-81
2022/05/18 00:24:01;;;;;;;2.42;0.70;;;12.70;49.90;;;;;;4142170;28;20037;-81
2022/05/18 00:26:03;;;;;;;4.82;0.73;;;12.70;50.10;;;;;;4141519;28;20072;-80
2022/05/18 00:28:05;;;;;;;3.50;0.55;;;12.80;50.00;;;;;;4143087;28;20057;-78
2022/05/18 00:30:07;;;;;;;5.65;0.82;;;12.70;50.00;;;;;;4143621;28;20022;-82
2022/05/18 00:32:08;;;;;;;5.82;0.82;;;12.70;50.10;;;;;;4129400;28;20057;-81
2022/05/18 00:34:09;;;;;;;4.47;0.95;;;12.70;50.00;;;;;;4144265;28;20029;-80
2022/05/18 00:36:11;;;;;;;2.60;0.60;;;12.80;50.00;;;;;;4129625;28;20070;-82
2022/05/18 00:38:12;;;;;;;2.78;0.60;;;12.80;50.00;;;;;;4137335;28;20038;-80
2022/05/18 00:40:15;;;;;;;2.17;0.60;;;12.80;50.10;;;;;;4147261;28;20025;-82
2022/05/18 00:42:21;;;;;;;5.95;0.73;;;12.80;50.20;;;;;;4142996;28;20168;-80
2022/05/18 00:44:21;;;;;;;2.30;0.60;;;12.80;50.20;;;;;;4147275;28;22030;-81
2022/05/18 00:46:22;;;;;;;15.73;0.68;;;12.80;50.20;;;;;;4144731;28;20092;-80
2022/05/18 00:48:24;;;;;;;2.17;0.60;;;12.70;50.20;;;;;;4127220;28;20044;-83
2022/05/18 00:50:32;;;;;;;1.58;0.52;;;12.80;50.10;;;;;;4145495;28;20309;-82
2022/05/18 00:52:42;;;;;;;6.80;1.00;;;12.70;50.20;;;;;;4144608;28;20030;-82
2022/05/18 00:54:43;;;;;;;2.80;0.40;;;12.70;50.20;;;;;;4145161;28;20117;-82
2022/05/18 00:57:00;;;;;;;5.05;0.68;;;12.70;50.20;;;;;;4129205;28;20034;-83
2022/05/18 00:59:17;;;;;;;3.28;0.50;;;12.70;50.20;;;;;;4126437;28;20034;-81
2022/05/18 01:01:18;;;;;;;2.83;0.50;;;12.70;50.30;;;;;;4125337;28;20109;-81
2022/05/18 01:03:28;;;;;;;4.13;0.80;;;12.70;50.50;;;;;;4144213;28;20406;-81
2022/05/18 01:05:34;;;;;;;2.85;0.80;;;12.70;50.50;;;;;;4127189;28;20049;-82
2022/05/18 01:07:39;;;;;;;7.43;0.75;;;12.80;50.80;;;;;;4146016;28;20034;-80
2022/05/18 01:09:45;;;;;;;4.45;1.00;;;12.70;50.90;;;;;;4144332;28;20029;-82
2022/05/18 01:11:46;;;;;;;5.30;0.85;;;12.70;51.10;;;;;;4126128;28;20035;-80
2022/05/18 01:13:48;;;;;;;3.33;0.70;;;12.70;51.20;;;;;;4142308;28;20044;-80
2022/05/18 01:15:50;;;;;;;1.40;0.30;;;12.70;51.30;;;;;;4142287;28;20036;-80
2022/05/18 01:17:54;;;;;;;2.97;0.90;;;12.60;51.40;;;;;;4129083;28;20061;-82
2022/05/18 01:19:57;;;;;;;7.18;0.70;;;12.70;52.10;;;;;;4143718;28;20068;-79
2022/05/18 01:22:26;;;;;;;7.25;0.70;;;12.60;51.60;;;;;;4140778;28;20083;-81
2022/05/18 01:24:40;;;;;;;4.20;0.60;;;12.60;51.70;;;;;;4148888;28;20037;-82
2022/05/18 01:26:44;;;;;;;5.03;0.50;;;12.60;51.80;;;;;;4145849;28;20033;-81
2022/05/18 01:28:55;;;;;;;4.45;0.77;;;12.60;51.80;;;;;;4127502;28;20058;-83
2022/05/18 01:30:56;;;;;;;3.45;0.73;;;12.60;51.90;;;;;;4126409;28;20441;-83
2022/05/18 01:32:58;;;;;;;5.28;0.60;;;12.60;52.10;;;;;;4147409;28;20018;-81
2022/05/18 01:34:59;;;;;;;5.55;1.08;;;12.50;52.10;;;;;;4145581;28;20052;-82
2022/05/18 01:36:59;;;;;;;2.42;0.70;;;12.50;52.20;;;;;;4144214;28;20058;-82
2022/05/18 01:39:01;;;;;;;6.22;1.00;;;12.50;52.40;;;;;;4148112;28;20096;-80
2022/05/18 01:41:06;;;;;;;4.70;0.80;;;12.50;52.60;;;;;;4128705;28;20053;-80
2022/05/18 01:43:13;;;;;;;1.45;0.73;;;12.40;52.60;;;;;;4142676;28;20034;-82
2022/05/18 01:45:14;;;;;;;5.22;0.90;;;12.40;52.70;;;;;;4144778;28;20025;-82
2022/05/18 01:47:15;;;;;;;6.05;0.80;;;12.40;52.80;;;;;;4144930;28;21856;-79
2022/05/18 01:49:16;;;;;;;10.38;1.20;;;12.40;52.90;;;;;;4124422;28;20451;-81
2022/05/18 01:51:37;;;;;;;5.90;0.60;;;12.40;53.00;;;;;;4106024;28;20031;-82
2022/05/18 01:53:38;;;;;;;2.28;0.68;;;12.30;53.20;;;;;;4106049;28;20031;-79
2022/05/18 01:55:39;;;;;;;2.15;0.70;;;12.30;53.20;;;;;;4125961;28;20759;-82
2022/05/18 01:57:40;;;;;;;1.88;0.55;;;12.30;53.40;;;;;;4122917;28;20035;-82
2022/05/18 01:59:44;;;;;;;5.32;0.70;;;12.30;53.60;;;;;;4139872;28;20537;-82
2022/05/18 02:01:44;;;;;;;2.17;0.90;;;12.30;53.80;;;;;;4138838;28;20088;-82
2022/05/18 02:03:48;;;;;;;2.17;0.50;;;12.20;53.80;;;;;;4142001;28;20033;-84
2022/05/18 02:05:51;;;;;;;5.10;0.60;;;12.20;53.90;;;;;;4143151;28;20026;-82
2022/05/18 02:07:52;;;;;;;1.88;0.60;;;12.20;54.00;;;;;;4142518;28;20397;-82
2022/05/18 02:09:53;;;;;;;3.33;0.80;;;12.30;54.10;;;;;;4144380;28;20038;-83
2022/05/18 02:11:54;;;;;;;7.30;0.93;;;12.20;54.20;;;;;;4144538;28;20532;-83
2022/05/18 02:13:55;;;;;;;4.50;0.82;;;12.20;54.40;;;;;;4141692;28;20564;-83
2022/05/18 02:15:55;;;;;;;5.05;0.60;;;12.20;54.40;;;;;;4145398;28;20037;-82
2022/05/18 02:17:56;;;;;;;1.70;0.52;;;12.20;55.00;;;;;;4128958;28;20085;-83
2022/05/18 02:19:58;;;;;;;4.18;0.70;;;12.20;54.60;;;;;;4129386;28;20030;-83
2022/05/18 02:21:59;;;;;;;5.57;0.90;;;12.10;54.70;;;;;;4146594;28;20017;-82
2022/05/18 02:24:00;;;;;;;2.85;0.73;;;12.20;54.80;;;;;;4146091;28;20093;-82
2022/05/18 02:26:13;;;;;;;8.23;0.98;;;12.00;54.70;;;;;;4129490;28;20100;-82
2022/05/18 02:28:14;;;;;;;8.73;0.80;;;12.10;54.70;;;;;;4142710;28;20040;-83
2022/05/18 02:30:15;;;;;;;4.53;0.65;;;12.10;54.70;;;;;;4144572;28;20034;-81
2022/05/18 02:32:15;;;;;;;7.75;1.25;;;12.10;54.70;;;;;;4148364;28;20040;-82
2022/05/18 02:34:16;;;;;;;3.03;0.68;;;12.00;54.70;;;;;;4143803;28;20034;-83
2022/05/18 02:36:16;;;;;;;3.70;0.80;;;12.10;54.80;;;;;;4129356;28;20022;-84
2022/05/18 02:38:17;;;;;;;5.53;0.70;;;12.10;54.80;;;;;;4143178;28;20045;-83
2022/05/18 02:40:18;;;;;;;8.35;0.80;;;12.00;54.80;;;;;;4147271;28;20041;-82
2022/05/18 02:42:18;;;;;;;4.97;1.00;;;12.00;55.00;;;;;;4147342;28;20049;-83
2022/05/18 02:44:19;;;;;;;3.22;0.88;;;12.00;55.10;;;;;;4148353;28;20033;-83
2022/05/18 02:46:21;;;;;;;3.92;0.60;;;12.00;55.10;;;;;;4143618;28;20041;-84
2022/05/18 02:48:22;;;;;;;3.88;0.77;;;12.00;55.10;;;;;;4142942;28;20040;-83
2022/05/18 02:50:23;;;;;;;1.73;0.60;;;11.90;55.10;;;;;;4150291;28;20034;-83
2022/05/18 02:52:23;;;;;;;2.67;0.60;;;12.00;55.30;;;;;;4150407;28;20049;-82
2022/05/18 02:56:44;;;;;;;3.33;0.80;;;11.90;55.30;;;;;;4143350;28;20107;-83
2022/05/18 02:58:50;;;;;;;3.58;1.00;;;11.90;55.40;;;;;;4127729;28;20510;-83
2022/05/18 03:00:52;;;;;;;4.38;0.80;;;11.90;55.50;;;;;;4124567;28;20022;-83
2022/05/18 03:02:52;;;;;;;4.93;0.90;;;11.80;55.50;;;;;;4125740;28;20038;-82
2022/05/18 03:04:53;;;;;;;5.78;0.85;;;11.80;55.60;;;;;;4147403;28;20079;-82
2022/05/18 03:06:54;;;;;;;4.65;0.90;;;11.80;55.70;;;;;;4145151;28;20041;-81
2022/05/18 03:08:57;;;;;;;3.60;0.90;;;11.80;55.70;;;;;;4150099;28;20038;-82
2022/05/18 03:10:58;;;;;;;4.88;0.57;;;11.80;55.70;;;;;;4147121;28;20032;-81
2022/05/18 03:12:58;;;;;;;2.25;0.60;;;11.80;55.70;;;;;;4144917;28;20473;-82
2022/05/18 03:14:59;;;;;;;8.25;1.08;;;11.80;55.70;;;;;;4145945;28;20042;-82
2022/05/18 03:17:00;;;;;;;4.40;0.80;;;11.80;56.30;;;;;;4147227;28;20030;-82
2022/05/18 03:19:01;;;;;;;3.47;0.80;;;11.70;55.60;;;;;;4127442;28;20141;-81
2022/05/18 03:23:34;;;;;;;3.17;0.70;;;11.60;55.70;;;;;;4125033;28;20126;-83
2022/05/18 03:25:34;;;;;;;3.55;1.33;;;11.70;55.80;;;;;;4143761;28;20447;-82
2022/05/18 03:27:43;;;;;;;7.22;0.82;;;11.70;55.90;;;;;;4145111;28;20132;-83
2022/05/18 03:29:43;;;;;;;5.60;0.90;;;11.70;55.90;;;;;;4125665;28;20049;-83
2022/05/18 03:31:46;;;;;;;6.75;1.00;;;11.70;55.90;;;;;;4139664;28;20037;-82
2022/05/18 03:33:48;;;;;;;2.33;0.60;;;11.70;56.00;;;;;;4145135;28;20033;-81
2022/05/18 03:35:49;;;;;;;5.90;0.65;;;11.60;56.00;;;;;;4144627;28;20060;-81
2022/05/18 03:37:49;;;;;;;5.75;0.93;;;11.60;56.00;;;;;;4146003;28;20029;-82
2022/05/18 03:39:50;;;;;;;3.88;0.80;;;11.70;56.30;;;;;;4142518;28;20049;-82
2022/05/18 03:41:50;;;;;;;2.78;0.68;;;11.60;56.30;;;;;;4141728;28;20034;-82
2022/05/18 03:43:51;;;;;;;4.72;0.73;;;11.60;56.40;;;;;;4124277;28;20035;-82
2022/05/18 03:45:52;;;;;;;15.85;1.10;;;11.50;56.30;;;;;;4129300;28;20043;-82
2022/05/18 03:47:52;;;;;;;4.50;1.33;;;11.60;56.60;;;;;;4128380;28;20811;-82
2022/05/18 03:49:53;;;;;;;4.80;1.15;;;11.50;56.50;;;;;;4123655;28;20027;-82
2022/05/18 03:51:54;;;;;;;6.32;0.68;;;11.60;56.60;;;;;;4147053;28;20036;-82
2022/05/18 03:53:54;;;;;;;5.80;0.75;;;11.60;56.60;;;;;;4148617;28;20022;-82
2022/05/18 03:55:55;;;;;;;5.63;0.68;;;11.50;56.50;;;;;;4141689;28;20033;-81
2022/05/18 03:57:56;;;;;;;5.18;0.90;;;11.50;56.70;;;;;;4140950;28;20033;-81
2022/05/18 03:59:56;;;;;;;3.50;0.82;;;11.50;56.70;;;;;;4141855;28;20046;-82
2022/05/18 04:01:57;;;;;;;7.35;0.82;;;11.50;56.70;;;;;;4123889;28;21113;-81
2022/05/18 04:03:58;;;;;;;9.77;0.90;;;11.40;56.70;;;;;;4141203;28;20062;-80
2022/05/18 04:05:58;;;;;;;3.42;1.00;;;11.40;56.80;;;;;;4139648;28;20034;-81
2022/05/18 04:08:00;;;;;;;3.58;0.70;;;11.40;56.90;;;;;;4141116;28;20041;-80
2022/05/18 04:10:01;;;;;;;2.92;0.80;;;11.40;57.00;;;;;;4149917;28;20064;-82
2022/05/18 04:12:01;;;;;;;4.70;0.65;;;11.40;57.20;;;;;;4127948;28;20767;-82
2022/05/18 04:14:02;;;;;;;2.30;0.80;;;11.40;57.20;;;;;;4144879;28;20061;-82
2022/05/18 04:16:04;;;;;;;7.25;1.20;;;11.40;57.30;;;;;;4143498;28;20141;-82
2022/05/18 04:18:05;;;;;;;2.00;1.00;;;11.40;57.40;;;;;;4148859;28;20137;-82
2022/05/18 04:20:07;;;;;;;3.53;0.90;;;11.30;57.40;;;;;;4154758;28;20516;-82
2022/05/18 04:22:10;;;;;;;6.32;0.70;;;11.30;57.40;;;;;;4129597;28;20029;-81
2022/05/18 04:24:11;;;;;;;5.55;1.05;;;11.30;57.60;;;;;;4141653;28;20030;-84
2022/05/18 04:26:12;;;;;;;1.55;0.70;;;11.30;57.60;;;;;;4135346;28;20030;-82
2022/05/18 04:28:14;;;;;;;2.95;0.90;;;11.40;57.80;;;;;;4106892;28;20035;-81
2022/05/18 04:30:16;;;;;;;2.78;0.85;;;11.30;57.80;;;;;;4137168;28;20026;-81
2022/05/18 04:32:16;;;;;;;3.95;0.95;;;11.30;58.00;;;;;;4141536;28;20358;-81
2022/05/18 04:34:17;;;;;;;2.25;0.55;;;11.30;58.10;;;;;;4121792;28;20117;-82
2022/05/18 04:36:17;;;;;;;3.58;0.90;;;11.40;58.20;;;;;;4143870;28;20460;-81
2022/05/18 04:38:20;;;;;;;5.65;1.45;;;11.40;58.30;;;;;;4143387;28;20033;-82
2022/05/18 04:40:22;;;;;;;5.13;1.17;;;11.40;58.50;;;;;;4141645;28;20029;-81
2022/05/18 04:42:23;;;;;;;3.20;0.80;;;11.40;58.50;;;;;;4143501;28;20034;-82
2022/05/18 04:44:23;;;;;;;4.85;0.90;;;11.40;58.50;;;;;;4143518;28;20041;-82
2022/05/18 04:46:24;;;;;;;3.85;0.80;;;11.50;58.60;;;;;;4108600;28;20046;-83
2022/05/18 04:48:30;;;;;;;2.63;0.60;;;11.50;58.60;;;;;;4148485;28;20647;-82
2022/05/18 04:50:31;;;;;;;5.28;1.15;;;11.50;58.60;;;;;;4151467;28;20042;-82
2022/05/18 04:52:32;;;;;;;2.60;0.60;;;11.60;58.60;;;;;;4150774;28;20057;-83
2022/05/18 04:54:34;;;;;;;3.65;0.68;;;11.60;58.60;;;;;;4148790;28;20026;-83
2022/05/18 04:56:35;;;;;;;4.53;1.17;;;11.60;58.70;;;;;;4129389;28;20580;-83
2022/05/18 04:58:36;;;;;;;4.47;0.80;;;11.70;58.70;;;;;;4147533;28;20034;-83
2022/05/18 05:00:37;;;;;;;4.18;0.88;;;11.70;58.80;;;;;;4148602;28;20033;-83
2022/05/18 05:02:39;;;;;;;3.78;0.77;;;11.80;58.80;;;;;;4149249;28;20041;-83
2022/05/18 05:04:39;;;;;;;1.92;0.90;;;11.90;58.90;;;;;;4148869;28;20022;-83
2022/05/18 05:06:40;;;;;;;5.97;1.00;;;11.90;58.90;;;;;;4127498;28;20038;-83
2022/05/18 05:08:41;;;;;;;4.15;1.10;;;12.00;59.00;;;;;;4130459;28;20034;-83
2022/05/18 05:10:42;;;;;;;6.35;1.00;;;12.00;58.90;;;;;;4136188;28;20155;-83
2022/05/18 05:12:42;;;;;;;2.03;0.60;;;12.00;58.60;;;;;;4146038;28;20026;-83
2022/05/18 05:14:44;;;;;;;9.20;1.10;;;12.10;58.60;;;;;;4130834;28;20030;-83
2022/05/18 05:16:46;;;;;;;4.55;1.13;;;12.20;58.60;;;;;;4141301;28;20033;-81
2022/05/18 05:18:47;;;;;;;4.47;0.95;;;12.30;58.50;;;;;;4144146;28;20038;-81
2022/05/18 05:20:47;;;;;;;7.85;0.90;;;12.30;58.50;;;;;;4144117;28;20493;-81
2022/05/18 05:22:48;;;;;;;2.53;0.80;;;12.30;58.40;;;;;;4147530;28;20476;-82
2022/05/18 05:24:49;;;;;;;5.82;1.00;;;12.40;58.40;;;;;;4147045;28;20528;-81
2022/05/18 05:26:52;;;;;;;2.15;0.68;;;12.40;58.40;;;;;;4132303;28;20045;-82
2022/05/18 05:28:53;;;;;;;6.47;1.02;;;12.50;58.40;;;;;;4143744;28;20036;-81
2022/05/18 05:30:54;;;;;;;6.95;1.48;;;12.60;58.30;;;;;;4141352;28;20034;-83
2022/05/18 05:32:54;;;;;;;6.03;0.70;;;12.60;58.20;;;;;;4144327;28;20488;-81
2022/05/18 05:34:55;;;;;;;4.57;0.90;;;12.70;58.00;;;;;;4142916;28;20110;-82
2022/05/18 05:36:56;;;;;;;6.18;1.00;;;12.80;58.10;;;;;;4123898;28;20039;-83
2022/05/18 05:38:57;;;;;;;4.20;0.93;;;12.90;57.80;;;;;;4142044;28;20044;-82
2022/05/18 05:41:01;;;;;;;3.42;0.80;;;13.00;58.10;;;;;;4127227;28;20526;-82
2022/05/18 05:43:09;;;;;;;6.32;0.85;;;13.00;57.30;;;;;;4145306;28;20034;-81
2022/05/18 05:45:10;;;;;;;8.60;0.75;;;13.10;57.10;;;;;;4141156;28;20042;-84
2022/05/18 05:47:11;;;;;;;5.50;0.70;;;13.10;57.20;;;;;;4143780;28;20062;-82
2022/05/18 05:49:12;;;;;;;5.20;1.02;;;13.20;57.20;;;;;;4129551;28;20037;-82
2022/05/18 05:51:15;;;;;;;2.38;0.75;;;13.40;57.10;;;;;;4144315;28;20040;-82
2022/05/18 05:53:16;;;;;;;4.75;1.40;;;13.40;57.00;;;;;;4132286;28;20054;-82
2022/05/18 05:55:17;;;;;;;2.50;0.70;;;13.50;56.20;;;;;;4130026;28;20114;-82
2022/05/18 05:57:18;;;;;;;4.30;1.02;;;13.50;56.40;;;;;;4131394;28;20061;-83
2022/05/18 05:59:21;;;;;;;3.03;1.00;;;13.60;56.20;;;;;;4149542;28;20113;-82
2022/05/18 06:01:22;;;;;;;4.18;1.20;;;13.70;56.30;;;;;;4143934;28;20455;-81
2022/05/18 06:03:23;;;;;;;5.00;1.30;;;13.80;56.60;;;;;;4141484;28;20026;-82
2022/05/18 06:05:23;;;;;;;5.28;0.82;;;13.80;56.10;;;;;;4143838;28;20049;-82
2022/05/18 06:07:24;;;;;;;3.15;0.70;;;13.90;56.70;;;;;;4123828;28;20070;-82
2022/05/18 06:09:26;;;;;;;3.58;0.75;;;14.00;55.90;;;;;;4142070;28;20049;-82
2022/05/18 06:11:27;;;;;;;4.05;0.77;;;14.10;55.90;;;;;;4146000;28;20025;-82
2022/05/18 06:13:29;;;;;;;8.18;1.02;;;14.10;55.60;;;;;;4140673;28;20026;-82
2022/05/18 06:15:29;;;;;;;7.55;1.00;;;14.20;55.60;;;;;;4142809;28;20042;-82
2022/05/18 06:17:30;;;;;;;3.10;0.93;;;14.20;55.60;;;;;;4143534;28;20932;-83
2022/05/18 06:19:33;;;;;;;3.00;0.85;;;14.30;55.60;;;;;;4140988;28;20022;-83
2022/05/18 06:21:34;;;;;;;5.07;0.90;;;14.30;55.60;;;;;;4115701;28;20105;-82
2022/05/18 06:23:36;;;;;;;5.93;1.02;;;14.40;55.80;;;;;;4146290;28;20026;-83
2022/05/18 06:25:38;;;;;;;3.72;0.95;;;14.40;55.80;;;;;;4143727;28;20873;-83
2022/05/18 06:27:41;;;;;;;3.88;1.27;;;14.50;55.80;;;;;;4147407;28;20145;-83
2022/05/18 06:29:41;;;;;;;2.20;0.90;;;14.60;55.80;;;;;;4112921;28;20027;-83
2022/05/18 06:31:42;;;;;;;4.40;1.00;;;14.70;56.10;;;;;;4147666;28;20060;-83
2022/05/18 06:33:43;;;;;;;4.32;0.90;;;14.80;56.10;;;;;;4145847;28;20669;-82
2022/05/18 06:35:45;;;;;;;6.38;1.02;;;14.90;56.00;;;;;;4145442;28;20113;-83
2022/05/18 06:37:45;;;;;;;6.65;1.10;;;14.90;55.90;;;;;;4146625;28;20464;-82
2022/05/18 06:39:46;;;;;;;6.50;1.92;;;15.00;55.70;;;;;;4145552;28;20033;-83
2022/05/18 06:41:47;;;;;;;3.55;0.98;;;15.10;55.40;;;;;;4147917;28;20029;-82
2022/05/18 06:43:54;;;;;;;5.88;1.30;;;15.20;55.30;;;;;;4145606;28;20033;-86
2022/05/18 06:45:56;;;;;;;5.15;1.15;;;15.30;55.30;;;;;;4144918;28;20041;-84
2022/05/18 06:47:57;;;;;;;7.78;1.38;;;15.40;55.20;;;;;;4134894;28;20034;-83
2022/05/18 06:50:00;;;;;;;8.70;1.27;;;15.50;54.90;;;;;;4144074;28;20025;-84
2022/05/18 06:52:01;;;;;;;1.83;0.98;;;15.50;54.70;;;;;;4143461;28;20504;-83
2022/05/18 06:54:04;;;;;;;8.27;1.02;;;15.60;55.00;;;;;;4150335;28;21071;-82
2022/05/18 06:56:05;;;;;;;10.55;1.67;;;15.60;54.80;;;;;;4146385;28;20029;-83
2022/05/18 06:58:06;;;;;;;2.97;1.00;;;15.60;54.50;;;;;;4127489;28;20045;-83
2022/05/18 07:00:07;;;;;;;5.85;1.10;;;15.70;54.30;;;;;;4140631;28;20030;-83
2022/05/18 07:02:08;;;;;;;5.80;1.33;;;15.70;54.40;;;;;;4137839;28;20022;-83
2022/05/18 07:04:12;;;;;;;3.67;1.10;;;15.70;54.60;;;;;;4134961;28;20061;-81
2022/05/18 07:06:14;;;;;;;3.38;0.95;;;15.70;54.70;;;;;;4142231;28;20037;-82
2022/05/18 07:08:15;;;;;;;8.40;1.25;;;15.70;54.90;;;;;;4140862;28;21802;-82
2022/05/18 07:10:16;;;;;;;4.80;1.27;;;15.70;55.00;;;;;;4143409;28;20025;-83
2022/05/18 07:12:17;;;;;;;3.63;1.23;;;15.80;55.40;;;;;;4124570;28;20082;-82
2022/05/18 07:14:21;;;;;;;5.47;1.33;;;15.80;55.50;;;;;;4141651;28;20030;-83
2022/05/18 07:16:23;;;;;;;4.15;1.55;;;15.90;55.40;;;;;;4140195;28;20048;-82
2022/05/18 07:18:29;;;;;;;6.68;1.17;;;16.00;55.40;;;;;;4143699;28;20026;-81
2022/05/18 07:20:30;;;;;;;8.93;1.70;;;16.10;55.40;;;;;;4141845;28;20540;-82
2022/05/18 07:22:31;;;;;;;6.20;1.38;;;16.10;55.30;;;;;;4143323;28;20048;-83
2022/05/18 07:24:32;;;;;;;5.05;1.10;;;16.20;55.40;;;;;;4122197;28;20462;-83
2022/05/18 07:26:34;;;;;;;5.20;1.50;;;16.40;55.30;;;;;;4141880;28;20049;-83
2022/05/18 07:28:35;;;;;;;5.43;1.40;;;16.40;55.20;;;;;;4141876;28;20197;-82
2022/05/18 07:30:36;;;;;;;4.68;1.23;;;16.50;55.50;;;;;;4140868;28;21923;-82
2022/05/18 07:32:37;;;;;;;2.50;1.23;;;16.60;55.60;;;;;;4125010;28;20018;-83
2022/05/18 07:34:41;;;;;;;9.60;1.52;;;16.70;55.50;;;;;;4114251;28;20030;-84
2022/05/18 07:36:51;;;;;;;4.75;1.42;;;16.80;55.10;;;;;;4125995;28;20566;-85
2022/05/18 07:38:51;;;;;;;3.35;1.60;;;16.90;55.00;;;;;;4143453;28;20098;-81
2022/05/18 07:40:52;;;;;;;5.00;1.70;;;17.00;54.80;;;;;;4129270;28;20027;-83
2022/05/18 07:42:56;;;;;;;8.48;1.70;;;17.10;54.90;;;;;;4148019;28;20154;-84
2022/05/18 07:44:57;;;;;;;7.90;1.92;;;17.20;54.40;;;;;;4128304;28;20038;-83
2022/05/18 07:46:58;;;;;;;6.88;1.65;;;17.30;54.30;;;;;;4128416;28;20066;-82
2022/05/18 07:48:59;;;;;;;6.95;1.83;;;17.40;53.70;;;;;;4144795;28;20106;-82
2022/05/18 07:51:00;;;;;;;4.50;1.80;;;17.50;53.70;;;;;;4146422;28;20036;-81
2022/05/18 07:53:01;;;;;;;6.90;1.73;;;17.50;53.10;;;;;;4146583;28;20030;-82
2022/05/18 07:55:12;;;;;;;8.70;1.60;;;17.50;53.20;;;;;;4141974;28;20537;-83
2022/05/18 07:57:32;;;;;;;4.65;1.60;;;17.60;53.10;;;;;;4146145;28;20061;-82
2022/05/18 07:59:33;;;;;;;8.43;1.88;;;17.70;53.20;;;;;;4146474;28;20112;-82
2022/05/18 08:01:54;;;;;;;7.15;1.75;;;17.70;53.10;;;;;;4146446;28;20046;-82
2022/05/18 08:04:14;;;;;;;5.10;1.70;;;17.70;52.70;;;;;;4145934;28;20037;-83
2022/05/18 08:06:17;;;;;;;3.35;1.52;;;17.70;52.50;;;;;;4150624;28;20048;-84
2022/05/18 08:08:37;;;;;;;5.03;1.60;;;17.80;52.80;;;;;;4150172;28;20041;-85
2022/05/18 08:15:56;;;;;;;8.00;1.80;;;17.80;52.60;;;;;;4155708;28;20061;-83
2022/05/18 08:18:18;;;;;;;3.25;1.90;;;17.80;52.60;;;;;;4153872;28;20137;-83
2022/05/18 08:20:40;;;;;;;6.90;2.33;;;17.80;52.80;;;;;;4143790;28;20030;-82
2022/05/18 08:23:01;;;;;;;6.80;1.90;;;17.80;52.90;;;;;;4145648;28;20100;-84
2022/05/18 08:25:21;;;;;;;8.18;2.03;;;17.80;52.90;;;;;;4147100;28;20310;-83
2022/05/18 08:27:22;;;;;;;3.97;1.90;;;17.80;53.20;;;;;;4132117;28;20034;-83
2022/05/18 08:29:23;;;;;;;7.65;1.65;;;17.80;53.40;;;;;;4134471;28;20529;-83
2022/05/18 08:31:24;;;;;;;10.45;1.95;;;17.80;53.60;;;;;;4148597;28;20545;-83
2022/05/18 08:33:25;;;;;;;3.50;1.75;;;17.90;53.60;;;;;;4146729;28;20038;-83
2022/05/18 08:35:27;;;;;;;8.00;2.00;;;17.90;53.50;;;;;;4149885;28;20513;-83
2022/05/18 08:37:28;;;;;;;8.25;2.00;;;18.00;53.70;;;;;;4129173;28;20561;-83
2022/05/18 08:39:28;;;;;;;2.28;1.50;;;18.00;53.00;;;;;;4157163;28;20714;-82
2022/05/18 08:41:38;;;;;;;5.13;2.17;;;18.10;53.20;;;;;;4121106;28;20035;-83
2022/05/18 08:43:45;;;;;;;6.40;1.80;;;18.10;52.80;;;;;;4144143;28;20285;-84
2022/05/18 08:45:47;;;;;;;4.93;1.98;;;18.10;53.10;;;;;;4147476;28;20041;-83
2022/05/18 08:48:14;;;;;;;3.90;1.90;;;18.20;53.50;;;;;;4146881;28;20053;-82
2022/05/18 08:50:20;;;;;;;5.53;1.80;;;18.20;53.50;;;;;;4146766;28;20046;-82
2022/05/18 08:52:59;;;;;;;8.43;1.83;;;18.30;54.00;;;;;;4143791;28;20033;-83
2022/05/18 08:55:08;;;;;;;6.35;1.95;;;18.40;54.20;;;;;;4140572;28;20072;-82
2022/05/18 08:57:19;;;;;;;5.93;2.20;;;18.50;53.80;;;;;;4130184;28;20022;-82
2022/05/18 08:59:25;;;;;;;7.38;1.98;;;18.60;53.80;;;;;;4145856;28;20032;-82
2022/05/18 09:01:46;;;;;;;5.88;2.00;;;18.60;54.00;;;;;;4146094;28;20441;-82
2022/05/18 09:04:01;;;;;;;5.60;1.77;;;18.70;53.60;;;;;;4145834;28;20055;-82
2022/05/18 09:06:11;;;;;;;8.57;2.30;;;18.80;53.10;;;;;;4129892;28;20498;-81
2022/05/18 09:08:23;;;;;;;5.30;2.20;;;18.80;52.60;;;;;;4147661;28;20086;-82
2022/05/18 09:10:33;;;;;;;9.70;1.90;;;18.80;53.10;;;;;;4148506;28;20037;-82
2022/05/18 09:12:36;;;;;;;7.03;1.65;;;18.80;53.30;;;;;;4146091;28;20064;-82
2022/05/18 09:14:38;;;;;;;5.55;2.22;;;18.80;53.20;;;;;;4148329;28;20026;-82
2022/05/18 09:16:48;;;;;;;3.63;2.35;;;18.80;53.40;;;;;;4148391;28;20030;-82
2022/05/18 09:19:11;;;;;;;6.43;2.42;;;18.80;53.60;;;;;;4130701;28;20035;-82
2022/05/18 09:21:45;;;;;;;5.60;2.22;;;18.90;53.70;;;;;;4128344;28;20018;-82
2022/05/18 09:24:00;;;;;;;7.97;2.33;;;18.90;53.90;;;;;;4129501;28;20512;-82
2022/05/18 09:26:19;;;;;;;4.70;2.35;;;18.90;53.70;;;;;;4147255;28;20037;-82
2022/05/18 09:28:41;;;;;;;8.32;2.72;;;18.90;53.40;;;;;;4141986;28;20084;-82
2022/05/18 09:31:10;;;;;;;4.15;2.03;;;19.00;53.60;;;;;;4146181;28;20065;-84
2022/05/18 09:33:43;;;;;;;8.77;2.42;;;19.00;54.60;;;;;;4146230;28;20037;-85
2022/05/18 09:36:10;;;;;;;7.95;3.40;;;19.00;54.70;;;;;;4143950;28;20049;-85
2022/05/18 09:38:18;;;;;;;6.00;2.95;;;19.10;54.60;;;;;;4129325;28;20049;-84
2022/05/18 09:40:21;;;;;;;10.63;2.97;;;19.20;54.80;;;;;;4146349;28;20036;-86
2022/05/18 09:42:29;;;;;;;6.43;2.85;;;19.30;55.00;;;;;;4130840;28;20030;-87
2022/05/18 09:45:00;;;;;;;21.60;3.58;;;19.40;54.90;;;;;;4144638;28;20157;-85
2022/05/18 09:47:02;;;;;;;6.75;2.90;;;19.50;54.40;;;;;;4128485;28;20038;-85
2022/05/18 09:49:26;;;;;;;6.28;2.83;;;19.60;54.60;;;;;;4145737;28;20029;-84
2022/05/18 09:51:36;;;;;;;11.55;2.28;;;19.70;54.50;;;;;;4137541;28;20030;-82
2022/05/18 09:53:40;;;;;;;;;;;19.80;54.50;;;;;;4144792;28;20124;-85
2022/05/18 09:55:47;;;;;;;;;;;19.90;54.20;;;;;;4138677;28;19913;-88
2022/05/18 09:58:13;;;;;;;10.15;2.83;;;19.90;53.80;;;;;;4124917;28;19996;-86
2022/05/18 10:00:23;;;;;;;9.35;3.17;;;20.00;53.90;;;;;;4126847;28;20073;-87
2022/05/18 10:07:30;;;;;;;6.38;3.75;;;20.20;54.60;;;;;;4153070;28;20042;-87
2022/05/18 10:09:43;;;;;;;9.82;3.33;;;20.30;54.20;;;;;;4123432;28;20487;-86
2022/05/18 10:11:47;;;;;;;6.87;3.30;;;20.40;54.30;;;;;;4131689;28;20057;-87
2022/05/18 10:14:15;;;;;;;10.93;3.50;;;20.50;54.00;;;;;;4144294;28;20176;-85
2022/05/18 10:16:38;;;;;;;5.18;3.10;;;20.60;53.50;;;;;;4145105;28;20166;-86
2022/05/18 10:19:03;;;;;;;10.90;3.30;;;20.70;53.60;;;;;;4127587;28;20189;-88
2022/05/18 10:21:18;;;;;;;7.55;3.60;;;20.70;53.50;;;;;;4146141;28;20022;-86
2022/05/18 10:23:33;;;;;;;8.95;3.20;;;20.80;53.30;;;;;;4125224;28;20026;-86
2022/05/18 10:25:57;;;;;;;22.02;4.82;;;20.90;53.80;;;;;;4141872;28;20034;-86
2022/05/18 10:28:21;;;;;;;5.15;3.33;;;21.00;53.20;;;;;;4127676;28;20054;-87
2022/05/18 10:30:34;;;;;;;7.65;3.50;;;21.10;52.80;;;;;;4142889;28;20640;-86
2022/05/18 10:33:22;;;;;;;12.50;3.97;;;21.20;53.20;;;;;;4124978;28;20072;-88
2022/05/18 10:35:58;;;;;;;10.45;4.22;;;21.20;52.60;;;;;;4108943;28;20085;-85
2022/05/18 10:38:14;;;;;;;10.38;3.70;;;21.30;52.70;;;;;;4127204;28;20033;-86
2022/05/18 10:40:22;;;;;;;15.98;4.00;;;21.30;52.80;;;;;;4140513;28;20033;-85
2022/05/18 10:42:32;;;;;;;9.43;4.28;;;21.30;53.00;;;;;;4142396;28;20421;-87
2022/05/18 10:44:35;;;;;;;8.05;3.63;;;21.40;52.90;;;;;;4124943;28;20154;-86
2022/05/18 10:46:43;;;;;;;9.40;4.47;;;21.50;52.20;;;;;;4132833;28;20136;-85
2022/05/18 10:49:22;;;;;;;7.85;4.00;;;21.50;52.20;;;;;;4155139;28;20021;-86
2022/05/18 10:51:39;;;;;;;11.75;3.92;;;21.60;52.60;;;;;;4141740;28;20018;-86
2022/05/18 10:53:48;;;;;;;9.77;3.35;;;21.70;52.70;;;;;;4143913;28;20129;-87
2022/05/18 10:56:10;;;;;;;7.65;3.42;;;21.70;52.80;;;;;;4150996;28;20036;-89
2022/05/18 10:58:36;;;;;;;6.25;3.78;;;21.70;52.40;;;;;;4128695;28;20050;-86
2022/05/18 11:01:11;;;;;;;14.50;3.92;;;21.80;52.70;;;;;;4125591;28;20091;-86
2022/05/18 11:03:26;;;;;;;8.82;3.65;;;21.80;51.50;;;;;;4144168;28;20065;-84
2022/05/18 11:05:59;;;;;;;6.53;3.55;;;21.70;51.50;;;;;;4147963;28;20033;-90
2022/05/18 11:08:20;;;;;;;10.82;3.38;;;21.70;51.30;;;;;;4127111;28;20462;-88